sensor_id;sensor_type;location;lat;lon;timestamp;P1;durP1;ratioP1;P2;durP2;ratioP2
8297;SDS011;4187;42.778;23.242;2023-04-08T00:02:25;17.97;;;16.07;;
8297;SDS011;4187;42.778;23.242;2023-04-08T00:04:52;19.17;;;16.27;;
8297;SDS011;4187;42.778;23.242;2023-04-08T00:07:21;19.57;;;17.10;;
8297;SDS011;4187;42.778;23.242;2023-04-08T00:09:47;21.40;;;19.13;;
8297;SDS011;4187;42.778;23.242;2023-04-08T00:12:15;18.07;;;16.27;;
8297;SDS011;4187;42.778;23.242;2023-04-08T00:14:42;18.03;;;15.67;;
8297;SDS011;4187;42.778;23.242;2023-04-08T00:17:08;18.10;;;14.60;;
8297;SDS011;4187;42.778;23.242;2023-04-08T00:19:35;16.17;;;14.27;;
8297;SDS011;4187;42.778;23.242;2023-04-08T00:22:02;15.63;;;13.97;;
8297;SDS011;4187;42.778;23.242;2023-04-08T00:24:30;15.77;;;14.10;;
8297;SDS011;4187;42.778;23.242;2023-04-08T00:26:57;13.97;;;12.47;;
8297;SDS011;4187;42.778;23.242;2023-04-08T00:29:24;13.73;;;12.30;;
8297;SDS011;4187;42.778;23.242;2023-04-08T00:31:51;18.23;;;13.80;;
8297;SDS011;4187;42.778;23.242;2023-04-08T00:34:18;16.77;;;12.73;;
8297;SDS011;4187;42.778;23.242;2023-04-08T00:36:46;15.40;;;13.80;;
8297;SDS011;4187;42.778;23.242;2023-04-08T00:39:12;15.63;;;14.03;;
8297;SDS011;4187;42.778;23.242;2023-04-08T00:41:41;17.07;;;15.27;;
8297;SDS011;4187;42.778;23.242;2023-04-08T00:44:08;17.83;;;15.57;;
8297;SDS011;4187;42.778;23.242;2023-04-08T00:46:35;19.73;;;15.60;;
8297;SDS011;4187;42.778;23.242;2023-04-08T00:49:04;18.73;;;16.03;;
8297;SDS011;4187;42.778;23.242;2023-04-08T00:51:32;21.60;;;16.30;;
8297;SDS011;4187;42.778;23.242;2023-04-08T00:54:00;18.97;;;16.23;;
8297;SDS011;4187;42.778;23.242;2023-04-08T00:56:29;17.00;;;14.83;;
8297;SDS011;4187;42.778;23.242;2023-04-08T00:58:59;18.17;;;16.23;;
8297;SDS011;4187;42.778;23.242;2023-04-08T01:01:28;18.43;;;15.90;;
8297;SDS011;4187;42.778;23.242;2023-04-08T01:04:01;19.20;;;16.90;;
8297;SDS011;4187;42.778;23.242;2023-04-08T01:06:35;19.57;;;16.43;;
8297;SDS011;4187;42.778;23.242;2023-04-08T01:09:06;21.13;;;16.50;;
8297;SDS011;4187;42.778;23.242;2023-04-08T01:11:34;20.00;;;17.17;;
8297;SDS011;4187;42.778;23.242;2023-04-08T01:14:08;23.37;;;19.63;;
8297;SDS011;4187;42.778;23.242;2023-04-08T01:16:41;28.53;;;22.13;;
8297;SDS011;4187;42.778;23.242;2023-04-08T01:19:13;36.53;;;26.80;;
8297;SDS011;4187;42.778;23.242;2023-04-08T01:21:47;30.10;;;21.50;;
8297;SDS011;4187;42.778;23.242;2023-04-08T01:24:15;23.77;;;20.80;;
8297;SDS011;4187;42.778;23.242;2023-04-08T01:26:50;23.13;;;20.53;;
8297;SDS011;4187;42.778;23.242;2023-04-08T01:29:17;21.27;;;18.07;;
8297;SDS011;4187;42.778;23.242;2023-04-08T01:31:45;22.77;;;17.83;;
8297;SDS011;4187;42.778;23.242;2023-04-08T01:34:13;22.83;;;18.67;;
8297;SDS011;4187;42.778;23.242;2023-04-08T01:36:42;27.80;;;20.53;;
8297;SDS011;4187;42.778;23.242;2023-04-08T01:39:10;27.33;;;21.27;;
8297;SDS011;4187;42.778;23.242;2023-04-08T01:41:38;24.97;;;20.57;;
8297;SDS011;4187;42.778;23.242;2023-04-08T01:44:06;26.67;;;20.53;;
8297;SDS011;4187;42.778;23.242;2023-04-08T01:46:35;25.50;;;21.87;;
8297;SDS011;4187;42.778;23.242;2023-04-08T01:49:03;30.30;;;22.80;;
8297;SDS011;4187;42.778;23.242;2023-04-08T01:51:31;25.77;;;21.23;;
8297;SDS011;4187;42.778;23.242;2023-04-08T01:53:59;27.63;;;21.20;;
8297;SDS011;4187;42.778;23.242;2023-04-08T01:56:27;25.83;;;22.57;;
8297;SDS011;4187;42.778;23.242;2023-04-08T01:58:58;31.83;;;24.03;;
8297;SDS011;4187;42.778;23.242;2023-04-08T02:01:29;34.27;;;24.87;;
8297;SDS011;4187;42.778;23.242;2023-04-08T02:04:00;35.20;;;25.60;;
8297;SDS011;4187;42.778;23.242;2023-04-08T02:06:28;36.90;;;25.53;;
8297;SDS011;4187;42.778;23.242;2023-04-08T02:08:56;26.23;;;20.33;;
8297;SDS011;4187;42.778;23.242;2023-04-08T02:11:24;22.03;;;18.67;;
8297;SDS011;4187;42.778;23.242;2023-04-08T02:13:52;21.50;;;18.67;;
8297;SDS011;4187;42.778;23.242;2023-04-08T02:16:21;21.63;;;18.43;;
8297;SDS011;4187;42.778;23.242;2023-04-08T02:18:52;21.80;;;17.07;;
8297;SDS011;4187;42.778;23.242;2023-04-08T02:21:25;20.73;;;17.40;;
8297;SDS011;4187;42.778;23.242;2023-04-08T02:23:58;20.03;;;16.13;;
8297;SDS011;4187;42.778;23.242;2023-04-08T02:26:30;18.37;;;16.03;;
8297;SDS011;4187;42.778;23.242;2023-04-08T02:28:59;18.10;;;16.20;;
8297;SDS011;4187;42.778;23.242;2023-04-08T02:31:27;19.43;;;16.50;;
8297;SDS011;4187;42.778;23.242;2023-04-08T02:33:56;19.90;;;16.80;;
8297;SDS011;4187;42.778;23.242;2023-04-08T02:36:23;18.53;;;16.57;;
8297;SDS011;4187;42.778;23.242;2023-04-08T02:38:51;20.20;;;15.37;;
8297;SDS011;4187;42.778;23.242;2023-04-08T02:41:18;21.53;;;17.33;;
8297;SDS011;4187;42.778;23.242;2023-04-08T02:43:46;27.80;;;23.53;;
8297;SDS011;4187;42.778;23.242;2023-04-08T02:46:19;25.87;;;19.23;;
8297;SDS011;4187;42.778;23.242;2023-04-08T02:48:46;29.87;;;21.53;;
8297;SDS011;4187;42.778;23.242;2023-04-08T02:51:14;56.60;;;38.10;;
8297;SDS011;4187;42.778;23.242;2023-04-08T02:53:41;72.53;;;46.27;;
8297;SDS011;4187;42.778;23.242;2023-04-08T02:56:08;47.50;;;33.40;;
8297;SDS011;4187;42.778;23.242;2023-04-08T02:58:36;25.47;;;21.20;;
8297;SDS011;4187;42.778;23.242;2023-04-08T03:01:03;20.77;;;17.57;;
8297;SDS011;4187;42.778;23.242;2023-04-08T03:03:30;19.63;;;16.90;;
8297;SDS011;4187;42.778;23.242;2023-04-08T03:05:57;22.50;;;18.63;;
8297;SDS011;4187;42.778;23.242;2023-04-08T03:08:26;23.13;;;17.70;;
8297;SDS011;4187;42.778;23.242;2023-04-08T03:10:53;19.13;;;17.13;;
8297;SDS011;4187;42.778;23.242;2023-04-08T03:13:20;17.23;;;15.43;;
8297;SDS011;4187;42.778;23.242;2023-04-08T03:15:47;17.47;;;15.40;;
8297;SDS011;4187;42.778;23.242;2023-04-08T03:18:13;18.07;;;15.70;;
8297;SDS011;4187;42.778;23.242;2023-04-08T03:20:40;18.13;;;15.80;;
8297;SDS011;4187;42.778;23.242;2023-04-08T03:23:07;20.27;;;16.20;;
8297;SDS011;4187;42.778;23.242;2023-04-08T03:25:35;17.63;;;15.37;;
8297;SDS011;4187;42.778;23.242;2023-04-08T03:28:02;19.50;;;16.63;;
8297;SDS011;4187;42.778;23.242;2023-04-08T03:30:29;19.93;;;17.47;;
8297;SDS011;4187;42.778;23.242;2023-04-08T03:32:56;20.87;;;17.80;;
8297;SDS011;4187;42.778;23.242;2023-04-08T03:35:23;20.03;;;17.83;;
8297;SDS011;4187;42.778;23.242;2023-04-08T03:37:50;26.37;;;20.17;;
8297;SDS011;4187;42.778;23.242;2023-04-08T03:40:18;26.00;;;20.40;;
8297;SDS011;4187;42.778;23.242;2023-04-08T03:42:46;33.70;;;24.57;;
8297;SDS011;4187;42.778;23.242;2023-04-08T03:45:14;31.70;;;25.67;;
8297;SDS011;4187;42.778;23.242;2023-04-08T03:47:41;39.63;;;27.87;;
8297;SDS011;4187;42.778;23.242;2023-04-08T03:50:08;32.07;;;24.87;;
8297;SDS011;4187;42.778;23.242;2023-04-08T03:52:35;31.23;;;22.87;;
8297;SDS011;4187;42.778;23.242;2023-04-08T03:55:02;27.13;;;22.10;;
8297;SDS011;4187;42.778;23.242;2023-04-08T03:57:29;34.83;;;26.77;;
8297;SDS011;4187;42.778;23.242;2023-04-08T03:59:57;48.47;;;35.10;;
8297;SDS011;4187;42.778;23.242;2023-04-08T04:02:24;55.87;;;40.17;;
8297;SDS011;4187;42.778;23.242;2023-04-08T04:04:51;54.40;;;38.23;;
8297;SDS011;4187;42.778;23.242;2023-04-08T04:07:19;63.37;;;39.50;;
8297;SDS011;4187;42.778;23.242;2023-04-08T04:09:46;28.67;;;22.37;;
8297;SDS011;4187;42.778;23.242;2023-04-08T04:12:13;30.57;;;23.30;;
8297;SDS011;4187;42.778;23.242;2023-04-08T04:14:40;23.23;;;18.60;;
8297;SDS011;4187;42.778;23.242;2023-04-08T04:17:08;21.13;;;18.50;;
8297;SDS011;4187;42.778;23.242;2023-04-08T04:19:35;27.00;;;23.10;;
8297;SDS011;4187;42.778;23.242;2023-04-08T04:22:02;32.53;;;24.27;;
8297;SDS011;4187;42.778;23.242;2023-04-08T04:24:29;40.10;;;28.10;;
8297;SDS011;4187;42.778;23.242;2023-04-08T04:26:55;27.67;;;21.47;;
8297;SDS011;4187;42.778;23.242;2023-04-08T04:29:23;24.33;;;17.17;;
8297;SDS011;4187;42.778;23.242;2023-04-08T04:31:50;20.60;;;18.13;;
8297;SDS011;4187;42.778;23.242;2023-04-08T04:34:18;20.13;;;17.27;;
8297;SDS011;4187;42.778;23.242;2023-04-08T04:36:45;19.33;;;16.70;;
8297;SDS011;4187;42.778;23.242;2023-04-08T04:39:12;20.03;;;17.87;;
8297;SDS011;4187;42.778;23.242;2023-04-08T04:41:39;20.23;;;17.13;;
8297;SDS011;4187;42.778;23.242;2023-04-08T04:44:05;33.70;;;26.60;;
8297;SDS011;4187;42.778;23.242;2023-04-08T04:46:32;21.67;;;19.37;;
8297;SDS011;4187;42.778;23.242;2023-04-08T04:48:59;20.93;;;18.03;;
8297;SDS011;4187;42.778;23.242;2023-04-08T04:51:27;18.63;;;16.33;;
8297;SDS011;4187;42.778;23.242;2023-04-08T04:53:56;18.73;;;16.03;;
8297;SDS011;4187;42.778;23.242;2023-04-08T04:56:23;20.00;;;16.07;;
8297;SDS011;4187;42.778;23.242;2023-04-08T04:58:51;19.43;;;16.40;;
8297;SDS011;4187;42.778;23.242;2023-04-08T05:01:18;19.00;;;17.00;;
8297;SDS011;4187;42.778;23.242;2023-04-08T05:03:45;15.57;;;13.97;;
8297;SDS011;4187;42.778;23.242;2023-04-08T05:06:11;26.70;;;21.70;;
8297;SDS011;4187;42.778;23.242;2023-04-08T05:08:40;27.40;;;20.27;;
8297;SDS011;4187;42.778;23.242;2023-04-08T05:11:08;20.33;;;17.37;;
8297;SDS011;4187;42.778;23.242;2023-04-08T05:13:35;20.43;;;16.63;;
8297;SDS011;4187;42.778;23.242;2023-04-08T05:16:02;18.97;;;16.97;;
8297;SDS011;4187;42.778;23.242;2023-04-08T05:18:28;28.13;;;22.70;;
8297;SDS011;4187;42.778;23.242;2023-04-08T05:20:55;26.20;;;21.87;;
8297;SDS011;4187;42.778;23.242;2023-04-08T05:23:22;25.37;;;19.00;;
8297;SDS011;4187;42.778;23.242;2023-04-08T05:25:50;24.40;;;18.07;;
8297;SDS011;4187;42.778;23.242;2023-04-08T05:28:17;19.97;;;17.90;;
8297;SDS011;4187;42.778;23.242;2023-04-08T05:30:47;19.97;;;17.83;;
8297;SDS011;4187;42.778;23.242;2023-04-08T05:33:14;19.73;;;17.63;;
8297;SDS011;4187;42.778;23.242;2023-04-08T05:35:41;25.33;;;20.33;;
8297;SDS011;4187;42.778;23.242;2023-04-08T05:38:08;25.63;;;20.87;;
8297;SDS011;4187;42.778;23.242;2023-04-08T05:40:35;29.17;;;22.80;;
8297;SDS011;4187;42.778;23.242;2023-04-08T05:43:04;28.07;;;21.60;;
8297;SDS011;4187;42.778;23.242;2023-04-08T05:45:30;43.60;;;30.43;;
8297;SDS011;4187;42.778;23.242;2023-04-08T05:47:57;34.43;;;25.63;;
8297;SDS011;4187;42.778;23.242;2023-04-08T05:50:24;33.50;;;25.87;;
8297;SDS011;4187;42.778;23.242;2023-04-08T05:52:51;35.53;;;27.40;;
8297;SDS011;4187;42.778;23.242;2023-04-08T05:55:18;34.70;;;26.33;;
8297;SDS011;4187;42.778;23.242;2023-04-08T05:57:45;43.07;;;32.47;;
8297;SDS011;4187;42.778;23.242;2023-04-08T06:00:13;46.30;;;33.23;;
8297;SDS011;4187;42.778;23.242;2023-04-08T06:02:41;43.57;;;32.20;;
8297;SDS011;4187;42.778;23.242;2023-04-08T06:05:08;41.27;;;30.67;;
8297;SDS011;4187;42.778;23.242;2023-04-08T06:07:35;38.57;;;27.43;;
8297;SDS011;4187;42.778;23.242;2023-04-08T06:10:01;35.77;;;27.40;;
8297;SDS011;4187;42.778;23.242;2023-04-08T06:12:29;26.03;;;18.60;;
8297;SDS011;4187;42.778;23.242;2023-04-08T06:14:56;23.87;;;19.47;;
8297;SDS011;4187;42.778;23.242;2023-04-08T06:17:24;21.90;;;19.50;;
8297;SDS011;4187;42.778;23.242;2023-04-08T06:19:51;20.87;;;18.67;;
8297;SDS011;4187;42.778;23.242;2023-04-08T06:22:18;22.03;;;18.87;;
8297;SDS011;4187;42.778;23.242;2023-04-08T06:24:45;21.60;;;18.07;;
8297;SDS011;4187;42.778;23.242;2023-04-08T06:27:13;19.37;;;17.20;;
8297;SDS011;4187;42.778;23.242;2023-04-08T06:29:40;21.77;;;17.53;;
8297;SDS011;4187;42.778;23.242;2023-04-08T06:32:06;19.43;;;17.43;;
8297;SDS011;4187;42.778;23.242;2023-04-08T06:34:35;20.77;;;17.27;;
8297;SDS011;4187;42.778;23.242;2023-04-08T06:37:02;18.83;;;16.50;;
8297;SDS011;4187;42.778;23.242;2023-04-08T06:39:29;20.87;;;17.10;;
8297;SDS011;4187;42.778;23.242;2023-04-08T06:41:56;28.23;;;21.03;;
8297;SDS011;4187;42.778;23.242;2023-04-08T06:44:23;24.70;;;19.70;;
8297;SDS011;4187;42.778;23.242;2023-04-08T06:46:50;24.43;;;18.97;;
8297;SDS011;4187;42.778;23.242;2023-04-08T06:49:17;23.73;;;17.30;;
8297;SDS011;4187;42.778;23.242;2023-04-08T06:51:45;22.57;;;17.20;;
8297;SDS011;4187;42.778;23.242;2023-04-08T06:54:12;16.73;;;15.02;;
8297;SDS011;4187;42.778;23.242;2023-04-08T06:56:39;19.30;;;15.60;;
8297;SDS011;4187;42.778;23.242;2023-04-08T06:59:07;23.00;;;16.87;;
8297;SDS011;4187;42.778;23.242;2023-04-08T07:01:34;17.33;;;14.40;;
8297;SDS011;4187;42.778;23.242;2023-04-08T07:04:01;17.75;;;14.45;;
8297;SDS011;4187;42.778;23.242;2023-04-08T07:06:28;16.57;;;14.37;;
8297;SDS011;4187;42.778;23.242;2023-04-08T07:08:56;20.07;;;14.63;;
8297;SDS011;4187;42.778;23.242;2023-04-08T07:11:23;17.07;;;14.70;;
8297;SDS011;4187;42.778;23.242;2023-04-08T07:13:50;19.90;;;15.60;;
8297;SDS011;4187;42.778;23.242;2023-04-08T07:16:17;19.95;;;16.95;;
8297;SDS011;4187;42.778;23.242;2023-04-08T07:18:44;18.27;;;16.37;;
8297;SDS011;4187;42.778;23.242;2023-04-08T07:21:11;22.20;;;19.87;;
8297;SDS011;4187;42.778;23.242;2023-04-08T07:23:38;19.80;;;16.42;;
8297;SDS011;4187;42.778;23.242;2023-04-08T07:26:07;20.70;;;15.90;;
8297;SDS011;4187;42.778;23.242;2023-04-08T07:28:34;16.35;;;14.30;;
8297;SDS011;4187;42.778;23.242;2023-04-08T07:31:08;18.17;;;16.27;;
8297;SDS011;4187;42.778;23.242;2023-04-08T07:33:40;21.35;;;16.55;;
8297;SDS011;4187;42.778;23.242;2023-04-08T07:36:07;18.13;;;15.45;;
8297;SDS011;4187;42.778;23.242;2023-04-08T07:38:34;19.30;;;14.85;;
8297;SDS011;4187;42.778;23.242;2023-04-08T07:41:01;17.98;;;15.23;;
8297;SDS011;4187;42.778;23.242;2023-04-08T07:43:31;21.00;;;15.15;;
8297;SDS011;4187;42.778;23.242;2023-04-08T07:46:01;20.08;;;15.77;;
8297;SDS011;4187;42.778;23.242;2023-04-08T07:48:29;20.42;;;15.45;;
8297;SDS011;4187;42.778;23.242;2023-04-08T07:50:56;16.40;;;14.75;;
8297;SDS011;4187;42.778;23.242;2023-04-08T07:53:23;16.35;;;14.57;;
8297;SDS011;4187;42.778;23.242;2023-04-08T07:55:51;16.10;;;13.45;;
8297;SDS011;4187;42.778;23.242;2023-04-08T07:58:18;14.45;;;12.95;;
8297;SDS011;4187;42.778;23.242;2023-04-08T08:00:47;15.10;;;13.52;;
8297;SDS011;4187;42.778;23.242;2023-04-08T08:03:13;15.25;;;13.65;;
8297;SDS011;4187;42.778;23.242;2023-04-08T08:05:40;14.60;;;13.13;;
8297;SDS011;4187;42.778;23.242;2023-04-08T08:08:07;15.18;;;13.57;;
8297;SDS011;4187;42.778;23.242;2023-04-08T08:10:36;15.23;;;12.40;;
8297;SDS011;4187;42.778;23.242;2023-04-08T08:13:02;15.55;;;13.85;;
8297;SDS011;4187;42.778;23.242;2023-04-08T08:15:30;14.63;;;13.02;;
8297;SDS011;4187;42.778;23.242;2023-04-08T08:17:58;14.95;;;12.93;;
8297;SDS011;4187;42.778;23.242;2023-04-08T08:20:25;17.60;;;15.43;;
8297;SDS011;4187;42.778;23.242;2023-04-08T08:22:52;20.05;;;17.92;;
8297;SDS011;4187;42.778;23.242;2023-04-08T08:25:19;19.52;;;16.83;;
8297;SDS011;4187;42.778;23.242;2023-04-08T08:27:46;16.15;;;14.45;;
8297;SDS011;4187;42.778;23.242;2023-04-08T08:30:13;16.65;;;14.88;;
8297;SDS011;4187;42.778;23.242;2023-04-08T08:32:40;14.93;;;13.43;;
8297;SDS011;4187;42.778;23.242;2023-04-08T08:35:08;14.73;;;13.00;;
8297;SDS011;4187;42.778;23.242;2023-04-08T08:37:35;15.82;;;14.20;;
8297;SDS011;4187;42.778;23.242;2023-04-08T08:40:02;17.00;;;14.32;;
8297;SDS011;4187;42.778;23.242;2023-04-08T08:42:30;16.05;;;13.48;;
8297;SDS011;4187;42.778;23.242;2023-04-08T08:44:57;14.77;;;12.77;;
8297;SDS011;4187;42.778;23.242;2023-04-08T08:47:27;14.18;;;12.13;;
8297;SDS011;4187;42.778;23.242;2023-04-08T08:49:54;13.93;;;12.60;;
8297;SDS011;4187;42.778;23.242;2023-04-08T08:52:22;15.77;;;14.18;;
8297;SDS011;4187;42.778;23.242;2023-04-08T08:54:55;19.00;;;13.57;;
8297;SDS011;4187;42.778;23.242;2023-04-08T08:57:25;15.45;;;13.02;;
8297;SDS011;4187;42.778;23.242;2023-04-08T08:59:52;14.88;;;12.70;;
8297;SDS011;4187;42.778;23.242;2023-04-08T09:02:22;15.63;;;13.18;;
8297;SDS011;4187;42.778;23.242;2023-04-08T09:04:55;16.15;;;13.27;;
8297;SDS011;4187;42.778;23.242;2023-04-08T09:07:25;15.68;;;13.00;;
8297;SDS011;4187;42.778;23.242;2023-04-08T09:09:52;14.80;;;13.30;;
8297;SDS011;4187;42.778;23.242;2023-04-08T09:12:20;18.98;;;15.38;;
8297;SDS011;4187;42.778;23.242;2023-04-08T09:14:48;17.23;;;15.38;;
8297;SDS011;4187;42.778;23.242;2023-04-08T09:17:15;21.08;;;17.50;;
8297;SDS011;4187;42.778;23.242;2023-04-08T09:20:06;16.60;;;13.73;;
8297;SDS011;4187;42.778;23.242;2023-04-08T09:25:27;15.15;;;12.95;;
8297;SDS011;4187;42.778;23.242;2023-04-08T09:27:56;16.27;;;14.55;;
8297;SDS011;4187;42.778;23.242;2023-04-08T09:30:23;14.68;;;13.10;;
8297;SDS011;4187;42.778;23.242;2023-04-08T09:32:52;18.80;;;14.50;;
8297;SDS011;4187;42.778;23.242;2023-04-08T09:35:20;15.15;;;13.55;;
8297;SDS011;4187;42.778;23.242;2023-04-08T09:37:48;16.92;;;14.48;;
8297;SDS011;4187;42.778;23.242;2023-04-08T09:40:17;16.23;;;12.95;;
8297;SDS011;4187;42.778;23.242;2023-04-08T09:42:45;19.92;;;14.23;;
8297;SDS011;4187;42.778;23.242;2023-04-08T09:45:15;20.25;;;15.30;;
8297;SDS011;4187;42.778;23.242;2023-04-08T09:47:46;15.27;;;13.25;;
8297;SDS011;4187;42.778;23.242;2023-04-08T09:50:25;16.98;;;14.13;;
8297;SDS011;4187;42.778;23.242;2023-04-08T09:52:59;15.63;;;13.40;;
8297;SDS011;4187;42.778;23.242;2023-04-08T09:55:30;22.40;;;14.52;;
8297;SDS011;4187;42.778;23.242;2023-04-08T09:58:02;15.63;;;13.13;;
8297;SDS011;4187;42.778;23.242;2023-04-08T10:00:33;16.77;;;14.93;;
8297;SDS011;4187;42.778;23.242;2023-04-08T10:03:08;19.27;;;14.60;;
8297;SDS011;4187;42.778;23.242;2023-04-08T10:05:36;18.65;;;15.68;;
8297;SDS011;4187;42.778;23.242;2023-04-08T10:08:06;17.25;;;13.48;;
8297;SDS011;4187;42.778;23.242;2023-04-08T10:10:35;20.52;;;16.23;;
8297;SDS011;4187;42.778;23.242;2023-04-08T10:13:05;15.18;;;12.82;;
8297;SDS011;4187;42.778;23.242;2023-04-08T10:15:33;13.82;;;12.32;;
8297;SDS011;4187;42.778;23.242;2023-04-08T10:21:02;15.02;;;13.35;;
8297;SDS011;4187;42.778;23.242;2023-04-08T10:23:52;14.82;;;12.77;;
8297;SDS011;4187;42.778;23.242;2023-04-08T10:26:31;16.23;;;14.07;;
8297;SDS011;4187;42.778;23.242;2023-04-08T10:31:58;16.63;;;13.80;;
8297;SDS011;4187;42.778;23.242;2023-04-08T10:34:25;13.18;;;11.45;;
8297;SDS011;4187;42.778;23.242;2023-04-08T10:36:53;16.70;;;12.10;;
8297;SDS011;4187;42.778;23.242;2023-04-08T10:39:23;17.45;;;13.70;;
8297;SDS011;4187;42.778;23.242;2023-04-08T10:41:52;16.20;;;14.25;;
8297;SDS011;4187;42.778;23.242;2023-04-08T10:44:20;13.85;;;12.35;;
8297;SDS011;4187;42.778;23.242;2023-04-08T10:46:49;16.50;;;12.73;;
8297;SDS011;4187;42.778;23.242;2023-04-08T10:49:17;15.52;;;13.48;;
8297;SDS011;4187;42.778;23.242;2023-04-08T10:51:44;18.35;;;16.13;;
8297;SDS011;4187;42.778;23.242;2023-04-08T10:54:12;17.80;;;13.93;;
8297;SDS011;4187;42.778;23.242;2023-04-08T10:56:43;16.27;;;14.57;;
8297;SDS011;4187;42.778;23.242;2023-04-08T10:59:13;14.55;;;12.90;;
8297;SDS011;4187;42.778;23.242;2023-04-08T11:01:42;14.75;;;12.98;;
8297;SDS011;4187;42.778;23.242;2023-04-08T11:04:12;11.38;;;10.10;;
8297;SDS011;4187;42.778;23.242;2023-04-08T11:06:41;12.23;;;10.55;;
8297;SDS011;4187;42.778;23.242;2023-04-08T11:09:08;14.75;;;10.88;;
8297;SDS011;4187;42.778;23.242;2023-04-08T11:11:36;14.10;;;11.93;;
8297;SDS011;4187;42.778;23.242;2023-04-08T11:14:03;13.38;;;10.45;;
8297;SDS011;4187;42.778;23.242;2023-04-08T11:16:31;12.10;;;10.43;;
8297;SDS011;4187;42.778;23.242;2023-04-08T11:19:01;12.82;;;10.85;;
8297;SDS011;4187;42.778;23.242;2023-04-08T11:21:29;12.15;;;10.20;;
8297;SDS011;4187;42.778;23.242;2023-04-08T11:23:57;12.27;;;9.65;;
8297;SDS011;4187;42.778;23.242;2023-04-08T11:26:24;11.80;;;9.13;;
8297;SDS011;4187;42.778;23.242;2023-04-08T11:28:53;11.30;;;9.35;;
8297;SDS011;4187;42.778;23.242;2023-04-08T11:31:21;11.13;;;10.02;;
8297;SDS011;4187;42.778;23.242;2023-04-08T11:33:51;12.85;;;9.65;;
8297;SDS011;4187;42.778;23.242;2023-04-08T11:36:19;11.80;;;9.82;;
8297;SDS011;4187;42.778;23.242;2023-04-08T11:38:46;12.50;;;10.98;;
8297;SDS011;4187;42.778;23.242;2023-04-08T11:41:14;14.45;;;10.18;;
8297;SDS011;4187;42.778;23.242;2023-04-08T11:43:54;11.52;;;9.88;;
8297;SDS011;4187;42.778;23.242;2023-04-08T11:46:22;10.40;;;9.30;;
8297;SDS011;4187;42.778;23.242;2023-04-08T11:48:57;10.70;;;9.57;;
8297;SDS011;4187;42.778;23.242;2023-04-08T11:51:32;14.63;;;13.10;;
8297;SDS011;4187;42.778;23.242;2023-04-08T11:53:59;10.43;;;9.43;;
8297;SDS011;4187;42.778;23.242;2023-04-08T11:56:27;10.73;;;9.32;;
8297;SDS011;4187;42.778;23.242;2023-04-08T11:58:57;10.57;;;9.23;;
8297;SDS011;4187;42.778;23.242;2023-04-08T12:01:25;10.95;;;9.85;;
8297;SDS011;4187;42.778;23.242;2023-04-08T12:03:52;13.07;;;9.43;;
8297;SDS011;4187;42.778;23.242;2023-04-08T12:06:22;11.70;;;9.60;;
8297;SDS011;4187;42.778;23.242;2023-04-08T12:08:51;10.30;;;9.30;;
8297;SDS011;4187;42.778;23.242;2023-04-08T12:11:18;11.10;;;9.73;;
8297;SDS011;4187;42.778;23.242;2023-04-08T12:13:45;10.80;;;9.25;;
8297;SDS011;4187;42.778;23.242;2023-04-08T12:16:13;10.80;;;9.38;;
8297;SDS011;4187;42.778;23.242;2023-04-08T12:18:40;11.90;;;10.18;;
8297;SDS011;4187;42.778;23.242;2023-04-08T12:21:07;11.38;;;10.27;;
8297;SDS011;4187;42.778;23.242;2023-04-08T12:23:36;10.00;;;9.00;;
8297;SDS011;4187;42.778;23.242;2023-04-08T12:26:03;10.30;;;9.20;;
8297;SDS011;4187;42.778;23.242;2023-04-08T12:28:31;13.43;;;12.02;;
8297;SDS011;4187;42.778;23.242;2023-04-08T12:30:58;11.75;;;10.55;;
8297;SDS011;4187;42.778;23.242;2023-04-08T12:33:25;10.63;;;9.20;;
8297;SDS011;4187;42.778;23.242;2023-04-08T12:35:52;10.02;;;8.60;;
8297;SDS011;4187;42.778;23.242;2023-04-08T12:38:20;11.05;;;8.77;;
8297;SDS011;4187;42.778;23.242;2023-04-08T12:40:49;9.00;;;8.10;;
8297;SDS011;4187;42.778;23.242;2023-04-08T12:43:16;10.02;;;8.88;;
8297;SDS011;4187;42.778;23.242;2023-04-08T12:45:43;8.55;;;7.65;;
8297;SDS011;4187;42.778;23.242;2023-04-08T12:48:10;9.45;;;8.43;;
8297;SDS011;4187;42.778;23.242;2023-04-08T12:50:37;10.05;;;8.27;;
8297;SDS011;4187;42.778;23.242;2023-04-08T12:53:04;10.80;;;9.05;;
8297;SDS011;4187;42.778;23.242;2023-04-08T12:55:31;11.77;;;10.57;;
8297;SDS011;4187;42.778;23.242;2023-04-08T12:57:59;11.45;;;10.25;;
8297;SDS011;4187;42.778;23.242;2023-04-08T13:00:26;11.13;;;10.05;;
8297;SDS011;4187;42.778;23.242;2023-04-08T13:02:53;11.35;;;10.20;;
8297;SDS011;4187;42.778;23.242;2023-04-08T13:05:20;11.95;;;10.85;;
8297;SDS011;4187;42.778;23.242;2023-04-08T13:07:46;10.70;;;9.70;;
8297;SDS011;4187;42.778;23.242;2023-04-08T13:10:13;9.93;;;8.93;;
8297;SDS011;4187;42.778;23.242;2023-04-08T13:12:40;10.80;;;9.75;;
8297;SDS011;4187;42.778;23.242;2023-04-08T13:15:09;10.60;;;9.57;;
8297;SDS011;4187;42.778;23.242;2023-04-08T13:17:37;11.25;;;10.15;;
8297;SDS011;4187;42.778;23.242;2023-04-08T13:20:04;13.93;;;10.23;;
8297;SDS011;4187;42.778;23.242;2023-04-08T13:22:33;11.40;;;10.20;;
8297;SDS011;4187;42.778;23.242;2023-04-08T13:25:00;16.40;;;13.75;;
8297;SDS011;4187;42.778;23.242;2023-04-08T13:27:29;12.38;;;11.13;;
8297;SDS011;4187;42.778;23.242;2023-04-08T13:29:56;11.95;;;10.48;;
8297;SDS011;4187;42.778;23.242;2023-04-08T13:32:24;16.30;;;10.43;;
8297;SDS011;4187;42.778;23.242;2023-04-08T13:34:51;11.77;;;9.52;;
8297;SDS011;4187;42.778;23.242;2023-04-08T13:37:18;13.20;;;10.02;;
8297;SDS011;4187;42.778;23.242;2023-04-08T13:39:45;10.70;;;8.50;;
8297;SDS011;4187;42.778;23.242;2023-04-08T13:42:12;9.75;;;8.25;;
8297;SDS011;4187;42.778;23.242;2023-04-08T13:44:39;14.95;;;11.85;;
8297;SDS011;4187;42.778;23.242;2023-04-08T13:47:06;17.17;;;13.13;;
8297;SDS011;4187;42.778;23.242;2023-04-08T13:49:35;61.42;;;34.08;;
8297;SDS011;4187;42.778;23.242;2023-04-08T13:52:01;11.40;;;9.25;;
8297;SDS011;4187;42.778;23.242;2023-04-08T13:54:28;11.18;;;9.43;;
8297;SDS011;4187;42.778;23.242;2023-04-08T13:56:56;9.63;;;7.82;;
8297;SDS011;4187;42.778;23.242;2023-04-08T13:59:23;6.90;;;6.20;;
8297;SDS011;4187;42.778;23.242;2023-04-08T14:01:50;7.05;;;6.00;;
8297;SDS011;4187;42.778;23.242;2023-04-08T14:04:18;8.13;;;7.32;;
8297;SDS011;4187;42.778;23.242;2023-04-08T14:06:47;9.55;;;7.85;;
8297;SDS011;4187;42.778;23.242;2023-04-08T14:09:17;8.90;;;7.85;;
8297;SDS011;4187;42.778;23.242;2023-04-08T14:11:44;8.57;;;7.32;;
8297;SDS011;4187;42.778;23.242;2023-04-08T14:14:11;10.93;;;9.80;;
8297;SDS011;4187;42.778;23.242;2023-04-08T14:16:40;8.32;;;7.53;;
8297;SDS011;4187;42.778;23.242;2023-04-08T14:19:07;14.70;;;12.30;;
8297;SDS011;4187;42.778;23.242;2023-04-08T14:21:34;10.95;;;9.85;;
8297;SDS011;4187;42.778;23.242;2023-04-08T14:24:03;9.15;;;8.25;;
8297;SDS011;4187;42.778;23.242;2023-04-08T14:26:31;11.60;;;9.40;;
8297;SDS011;4187;42.778;23.242;2023-04-08T14:29:00;11.90;;;10.70;;
8297;SDS011;4187;42.778;23.242;2023-04-08T14:31:28;11.13;;;9.93;;
8297;SDS011;4187;42.778;23.242;2023-04-08T14:33:55;24.48;;;18.52;;
8297;SDS011;4187;42.778;23.242;2023-04-08T14:36:23;59.58;;;38.65;;
8297;SDS011;4187;42.778;23.242;2023-04-08T14:38:50;32.33;;;19.50;;
8297;SDS011;4187;42.778;23.242;2023-04-08T14:41:19;28.42;;;19.52;;
8297;SDS011;4187;42.778;23.242;2023-04-08T14:43:46;16.50;;;14.90;;
8297;SDS011;4187;42.778;23.242;2023-04-08T14:46:14;15.77;;;14.15;;
8297;SDS011;4187;42.778;23.242;2023-04-08T14:48:41;15.55;;;14.15;;
8297;SDS011;4187;42.778;23.242;2023-04-08T14:51:08;11.13;;;9.95;;